Terminal Aerodrome Forecast
Issued by NWS Brownsville, TX

Home | Current Version | Previous Version | Text Only | Print | Product List | Glossary On
Versions: 1 2 3 4 5 6 7 8 9 10 11 12 13 14
073
FTUS44 KBRO 221121
TAFBRO
TAF
KBRO 221121Z 2212/2312 00000KT 6SM BR MIFG SCT009
     FM221400 21003KT P6SM SCT030
     FM221800 33008KT P6SM SCT050
     FM222000 02010KT P6SM SCT050
     FM230100 34008KT P6SM SKC=

USA.gov is the U.S. government's official web portal to all federal, state and local government web resources and services.